sensor_id;sensor_type;location;lat;lon;timestamp;pressure;altitude;pressure_sealevel;temperature;humidity
71791;BME280;59638;52.126;5.434;2023-09-19T00:00:21;100775.69;;;13.18;100.00
71791;BME280;59638;52.126;5.434;2023-09-19T00:02:56;100783.66;;;13.18;100.00
71791;BME280;59638;52.126;5.434;2023-09-19T00:05:29;100787.28;;;13.17;100.00
71791;BME280;59638;52.126;5.434;2023-09-19T00:07:57;100783.97;;;13.15;100.00
71791;BME280;59638;52.126;5.434;2023-09-19T00:10:27;100782.31;;;13.14;100.00
71791;BME280;59638;52.126;5.434;2023-09-19T00:13:01;100795.56;;;13.14;100.00
71791;BME280;59638;52.126;5.434;2023-09-19T00:15:41;100798.22;;;13.14;100.00
71791;BME280;59638;52.126;5.434;2023-09-19T00:18:08;100798.22;;;13.14;100.00
71791;BME280;59638;52.126;5.434;2023-09-19T00:20:36;100803.66;;;13.13;100.00
71791;BME280;59638;52.126;5.434;2023-09-19T00:23:03;100801.81;;;13.13;100.00
71791;BME280;59638;52.126;5.434;2023-09-19T00:25:35;100803.66;;;13.13;100.00
71791;BME280;59638;52.126;5.434;2023-09-19T00:28:04;100794.88;;;13.12;100.00
71791;BME280;59638;52.126;5.434;2023-09-19T00:30:31;100803.81;;;13.11;100.00
71791;BME280;59638;52.126;5.434;2023-09-19T00:32:57;100801.53;;;13.16;100.00
71791;BME280;59638;52.126;5.434;2023-09-19T00:35:24;100814.13;;;13.14;100.00
71791;BME280;59638;52.126;5.434;2023-09-19T00:37:51;100809.66;;;13.15;100.00
71791;BME280;59638;52.126;5.434;2023-09-19T00:40:18;100811.16;;;13.17;100.00
71791;BME280;59638;52.126;5.434;2023-09-19T00:42:46;100810.84;;;13.20;100.00
71791;BME280;59638;52.126;5.434;2023-09-19T00:45:15;100806.25;;;13.22;100.00
71791;BME280;59638;52.126;5.434;2023-09-19T00:47:45;100807.91;;;13.23;100.00
71791;BME280;59638;52.126;5.434;2023-09-19T00:50:14;100810.41;;;13.25;100.00
71791;BME280;59638;52.126;5.434;2023-09-19T00:52:44;100815.53;;;13.26;100.00
71791;BME280;59638;52.126;5.434;2023-09-19T00:55:11;100813.41;;;13.30;100.00
71791;BME280;59638;52.126;5.434;2023-09-19T00:57:40;100814.91;;;13.32;100.00
71791;BME280;59638;52.126;5.434;2023-09-19T01:00:08;100820.09;;;13.34;100.00
71791;BME280;59638;52.126;5.434;2023-09-19T01:02:38;100823.56;;;13.35;100.00
71791;BME280;59638;52.126;5.434;2023-09-19T01:05:05;100823.91;;;13.40;100.00
71791;BME280;59638;52.126;5.434;2023-09-19T01:07:32;100827.25;;;13.42;100.00
71791;BME280;59638;52.126;5.434;2023-09-19T01:10:02;100830.25;;;13.47;100.00
71791;BME280;59638;52.126;5.434;2023-09-19T01:18:52;100828.50;;;13.55;100.00
71791;BME280;59638;52.126;5.434;2023-09-19T01:21:30;100833.59;;;13.49;100.00
71791;BME280;59638;52.126;5.434;2023-09-19T01:24:16;100833.06;;;13.45;100.00
71791;BME280;59638;52.126;5.434;2023-09-19T01:29:38;100828.53;;;13.38;100.00
71791;BME280;59638;52.126;5.434;2023-09-19T01:32:06;100833.22;;;13.44;100.00
71791;BME280;59638;52.126;5.434;2023-09-19T01:34:49;100833.59;;;13.49;100.00
71791;BME280;59638;52.126;5.434;2023-09-19T01:37:17;100838.56;;;13.52;100.00
71791;BME280;59638;52.126;5.434;2023-09-19T01:39:49;100833.09;;;13.53;100.00
71791;BME280;59638;52.126;5.434;2023-09-19T01:42:35;100831.59;;;13.51;100.00
71791;BME280;59638;52.126;5.434;2023-09-19T01:45:12;100835.53;;;13.47;100.00
71791;BME280;59638;52.126;5.434;2023-09-19T01:47:51;100835.22;;;13.42;100.00
71791;BME280;59638;52.126;5.434;2023-09-19T01:50:41;100846.47;;;13.44;100.00
71791;BME280;59638;52.126;5.434;2023-09-19T01:53:15;100840.03;;;13.46;100.00
71791;BME280;59638;52.126;5.434;2023-09-19T01:55:48;100843.38;;;13.48;100.00
71791;BME280;59638;52.126;5.434;2023-09-19T01:58:44;100842.75;;;13.54;100.00
71791;BME280;59638;52.126;5.434;2023-09-19T02:01:16;100843.56;;;13.55;100.00
71791;BME280;59638;52.126;5.434;2023-09-19T02:03:47;100843.88;;;13.52;100.00
71791;BME280;59638;52.126;5.434;2023-09-19T02:06:15;100845.84;;;13.50;100.00
71791;BME280;59638;52.126;5.434;2023-09-19T02:08:44;100855.47;;;13.51;100.00
71791;BME280;59638;52.126;5.434;2023-09-19T02:11:11;100842.22;;;13.51;100.00
71791;BME280;59638;52.126;5.434;2023-09-19T02:13:39;100843.03;;;13.51;100.00
71791;BME280;59638;52.126;5.434;2023-09-19T02:16:07;100846.03;;;13.48;100.00
71791;BME280;59638;52.126;5.434;2023-09-19T02:18:37;100840.84;;;13.47;100.00
71791;BME280;59638;52.126;5.434;2023-09-19T02:21:05;100840.03;;;13.46;100.00
71791;BME280;59638;52.126;5.434;2023-09-19T02:23:33;100833.75;;;13.47;100.00
71791;BME280;59638;52.126;5.434;2023-09-19T02:26:00;100833.22;;;13.44;100.00
71791;BME280;59638;52.126;5.434;2023-09-19T02:28:32;100852.09;;;13.41;100.00
71791;BME280;59638;52.126;5.434;2023-09-19T02:30:59;100842.47;;;13.40;100.00
71791;BME280;59638;52.126;5.434;2023-09-19T02:33:25;100852.09;;;13.41;100.00
71791;BME280;59638;52.126;5.434;2023-09-19T02:35:56;100856.09;;;13.45;100.00
71791;BME280;59638;52.126;5.434;2023-09-19T02:38:25;100852.16;;;13.49;100.00
71791;BME280;59638;52.126;5.434;2023-09-19T02:40:52;100854.63;;;13.50;100.00
71791;BME280;59638;52.126;5.434;2023-09-19T02:43:19;100861.72;;;13.42;100.00
71791;BME280;59638;52.126;5.434;2023-09-19T02:45:46;100859.00;;;13.33;100.00
71791;BME280;59638;52.126;5.434;2023-09-19T02:48:23;100858.13;;;13.25;100.00
71791;BME280;59638;52.126;5.434;2023-09-19T02:50:51;100862.34;;;13.18;100.00
71791;BME280;59638;52.126;5.434;2023-09-19T02:53:18;100852.34;;;13.12;100.00
71791;BME280;59638;52.126;5.434;2023-09-19T02:55:46;100857.13;;;13.08;100.00
71791;BME280;59638;52.126;5.434;2023-09-19T02:58:13;100852.06;;;12.97;100.00
71791;BME280;59638;52.126;5.434;2023-09-19T03:00:41;100857.00;;;12.92;100.00
71791;BME280;59638;52.126;5.434;2023-09-19T03:03:14;100869.56;;;12.90;100.00
71791;BME280;59638;52.126;5.434;2023-09-19T03:05:43;100867.06;;;12.88;100.00
71791;BME280;59638;52.126;5.434;2023-09-19T03:08:13;100862.50;;;12.80;100.00
71791;BME280;59638;52.126;5.434;2023-09-19T03:10:46;100857.97;;;12.73;100.00
71791;BME280;59638;52.126;5.434;2023-09-19T03:13:14;100857.75;;;12.66;100.00
71791;BME280;59638;52.126;5.434;2023-09-19T03:15:42;100848.91;;;12.58;100.00
71791;BME280;59638;52.126;5.434;2023-09-19T03:18:10;100854.03;;;12.59;100.00
71791;BME280;59638;52.126;5.434;2023-09-19T03:20:37;100857.97;;;12.55;100.00
71791;BME280;59638;52.126;5.434;2023-09-19T03:23:04;100860.63;;;12.55;100.00
71791;BME280;59638;52.126;5.434;2023-09-19T03:25:34;100850.63;;;12.49;100.00
71791;BME280;59638;52.126;5.434;2023-09-19T03:28:01;100855.09;;;12.48;100.00
71791;BME280;59638;52.126;5.434;2023-09-19T03:30:32;100853.19;;;12.41;100.00
71791;BME280;59638;52.126;5.434;2023-09-19T03:33:00;100861.00;;;12.42;100.00
71791;BME280;59638;52.126;5.434;2023-09-19T03:35:26;100854.56;;;12.45;100.00
71791;BME280;59638;52.126;5.434;2023-09-19T03:37:53;100864.22;;;12.36;100.00
71791;BME280;59638;52.126;5.434;2023-09-19T03:40:19;100858.38;;;12.33;100.00
71791;BME280;59638;52.126;5.434;2023-09-19T03:42:48;100855.75;;;12.33;100.00
71791;BME280;59638;52.126;5.434;2023-09-19T03:45:14;100856.88;;;12.30;100.00
71791;BME280;59638;52.126;5.434;2023-09-19T03:47:41;100843.56;;;12.22;100.00
71791;BME280;59638;52.126;5.434;2023-09-19T03:50:08;100846.34;;;12.20;100.00
71791;BME280;59638;52.126;5.434;2023-09-19T03:52:37;100849.88;;;12.11;100.00
71791;BME280;59638;52.126;5.434;2023-09-19T03:55:03;100854.75;;;12.16;100.00
71791;BME280;59638;52.126;5.434;2023-09-19T03:57:33;100848.63;;;12.15;100.00
71791;BME280;59638;52.126;5.434;2023-09-19T04:00:03;100857.50;;;12.14;100.00
71791;BME280;59638;52.126;5.434;2023-09-19T04:02:31;100867.56;;;12.11;100.00
71791;BME280;59638;52.126;5.434;2023-09-19T04:04:59;100872.31;;;12.07;100.00
71791;BME280;59638;52.126;5.434;2023-09-19T04:07:26;100873.19;;;11.98;100.00
71791;BME280;59638;52.126;5.434;2023-09-19T04:09:55;100876.91;;;12.05;100.00
71791;BME280;59638;52.126;5.434;2023-09-19T04:12:21;100883.63;;;12.00;100.00
71791;BME280;59638;52.126;5.434;2023-09-19T04:14:48;100888.41;;;11.96;100.00
71791;BME280;59638;52.126;5.434;2023-09-19T04:17:16;100887.41;;;11.97;100.00
71791;BME280;59638;52.126;5.434;2023-09-19T04:19:43;100892.16;;;11.93;100.00
71791;BME280;59638;52.126;5.434;2023-09-19T04:22:12;100895.94;;;11.91;100.00
71791;BME280;59638;52.126;5.434;2023-09-19T04:24:39;100885.75;;;11.96;100.00
71791;BME280;59638;52.126;5.434;2023-09-19T04:27:06;100903.97;;;11.99;100.00
71791;BME280;59638;52.126;5.434;2023-09-19T04:29:33;100907.16;;;12.03;100.00
71791;BME280;59638;52.126;5.434;2023-09-19T04:32:00;100905.34;;;12.03;100.00
71791;BME280;59638;52.126;5.434;2023-09-19T04:34:26;100923.03;;;12.03;100.00
71791;BME280;59638;52.126;5.434;2023-09-19T04:36:54;100906.59;;;11.99;100.00
71791;BME280;59638;52.126;5.434;2023-09-19T04:39:22;100929.44;;;12.00;100.00
71791;BME280;59638;52.126;5.434;2023-09-19T04:41:51;100927.59;;;12.10;100.00
71791;BME280;59638;52.126;5.434;2023-09-19T04:44:19;100937.47;;;12.08;100.00
71791;BME280;59638;52.126;5.434;2023-09-19T04:46:45;100933.03;;;12.09;100.00
71791;BME280;59638;52.126;5.434;2023-09-19T04:49:14;100935.53;;;12.10;100.00
71791;BME280;59638;52.126;5.434;2023-09-19T04:51:41;100931.91;;;12.11;100.00
71791;BME280;59638;52.126;5.434;2023-09-19T04:54:08;100926.31;;;12.14;100.00
71791;BME280;59638;52.126;5.434;2023-09-19T04:56:35;100924.78;;;12.12;100.00
71791;BME280;59638;52.126;5.434;2023-09-19T04:59:02;100914.38;;;12.10;100.00
71791;BME280;59638;52.126;5.434;2023-09-19T05:01:29;100920.50;;;12.11;100.00
71791;BME280;59638;52.126;5.434;2023-09-19T05:03:55;100922.47;;;12.09;100.00
71791;BME280;59638;52.126;5.434;2023-09-19T05:06:22;100924.94;;;12.10;100.00
71791;BME280;59638;52.126;5.434;2023-09-19T05:08:49;100931.06;;;12.11;100.00
71791;BME280;59638;52.126;5.434;2023-09-19T05:11:18;100928.00;;;12.15;100.00
71791;BME280;59638;52.126;5.434;2023-09-19T05:13:45;100933.81;;;12.19;100.00
71791;BME280;59638;52.126;5.434;2023-09-19T05:16:12;100933.28;;;12.15;100.00
71791;BME280;59638;52.126;5.434;2023-09-19T05:18:38;100934.41;;;12.13;100.00
71791;BME280;59638;52.126;5.434;2023-09-19T05:21:05;100937.34;;;12.10;100.00
71791;BME280;59638;52.126;5.434;2023-09-19T05:23:31;100937.63;;;12.07;100.00
71791;BME280;59638;52.126;5.434;2023-09-19T05:25:58;100930.81;;;12.04;100.00
71791;BME280;59638;52.126;5.434;2023-09-19T05:28:26;100933.03;;;12.09;100.00
71791;BME280;59638;52.126;5.434;2023-09-19T05:30:53;100939.75;;;12.03;100.00
71791;BME280;59638;52.126;5.434;2023-09-19T05:33:20;100941.41;;;12.04;100.00
71791;BME280;59638;52.126;5.434;2023-09-19T05:35:49;100934.81;;;12.08;100.00
71791;BME280;59638;52.126;5.434;2023-09-19T05:38:15;100929.66;;;12.16;100.00
71791;BME280;59638;52.126;5.434;2023-09-19T05:40:45;100921.81;;;12.24;100.00
71791;BME280;59638;52.126;5.434;2023-09-19T05:43:13;100926.53;;;12.31;100.00
71791;BME280;59638;52.126;5.434;2023-09-19T05:45:41;100924.28;;;12.36;100.00
71791;BME280;59638;52.126;5.434;2023-09-19T05:48:14;100929.28;;;12.39;100.00
71791;BME280;59638;52.126;5.434;2023-09-19T05:50:42;100924.81;;;12.39;100.00
71791;BME280;59638;52.126;5.434;2023-09-19T05:53:09;100939.00;;;12.48;100.00
71791;BME280;59638;52.126;5.434;2023-09-19T05:55:39;100929.75;;;12.52;100.00
71791;BME280;59638;52.126;5.434;2023-09-19T05:58:06;100945.38;;;12.55;100.00
71791;BME280;59638;52.126;5.434;2023-09-19T06:00:33;100944.47;;;12.64;100.00
71791;BME280;59638;52.126;5.434;2023-09-19T06:03:02;100943.72;;;12.72;100.00
71791;BME280;59638;52.126;5.434;2023-09-19T06:05:29;100940.63;;;12.76;100.00
71791;BME280;59638;52.126;5.434;2023-09-19T06:07:58;100943.78;;;12.80;100.00
71791;BME280;59638;52.126;5.434;2023-09-19T06:10:34;100952.22;;;12.75;100.00
71791;BME280;59638;52.126;5.434;2023-09-19T06:13:04;100953.56;;;12.79;100.00
71791;BME280;59638;52.126;5.434;2023-09-19T06:15:32;100965.53;;;12.84;100.00
71791;BME280;59638;52.126;5.434;2023-09-19T06:17:59;100962.56;;;12.87;100.00
71791;BME280;59638;52.126;5.434;2023-09-19T06:20:26;100960.25;;;12.84;100.00
71791;BME280;59638;52.126;5.434;2023-09-19T06:22:53;100961.63;;;12.88;100.00
71791;BME280;59638;52.126;5.434;2023-09-19T06:25:20;100966.00;;;12.97;100.00
71791;BME280;59638;52.126;5.434;2023-09-19T06:27:50;100963.19;;;12.98;100.00
71791;BME280;59638;52.126;5.434;2023-09-19T06:30:18;100971.22;;;13.06;100.00
71791;BME280;59638;52.126;5.434;2023-09-19T06:32:45;100967.13;;;13.12;100.00
71791;BME280;59638;52.126;5.434;2023-09-19T06:35:14;100966.69;;;13.17;100.00
71791;BME280;59638;52.126;5.434;2023-09-19T06:37:42;100949.91;;;13.26;100.00
71791;BME280;59638;52.126;5.434;2023-09-19T06:40:13;100946.81;;;13.30;100.00
71791;BME280;59638;52.126;5.434;2023-09-19T06:42:45;100954.16;;;13.37;100.00
71791;BME280;59638;52.126;5.434;2023-09-19T06:45:12;100953.69;;;13.41;100.00
71791;BME280;59638;52.126;5.434;2023-09-19T06:47:48;100954.44;;;13.51;100.00
71791;BME280;59638;52.126;5.434;2023-09-19T06:50:19;100951.00;;;13.59;100.00
71791;BME280;59638;52.126;5.434;2023-09-19T06:52:49;100950.91;;;13.69;100.00
71791;BME280;59638;52.126;5.434;2023-09-19T06:55:20;100951.13;;;13.75;100.00
71791;BME280;59638;52.126;5.434;2023-09-19T06:57:47;100956.66;;;13.82;100.00
71791;BME280;59638;52.126;5.434;2023-09-19T07:00:15;100955.19;;;13.87;100.00
71791;BME280;59638;52.126;5.434;2023-09-19T07:02:42;100956.22;;;13.95;100.00
71791;BME280;59638;52.126;5.434;2023-09-19T07:05:08;100954.25;;;13.97;100.00
71791;BME280;59638;52.126;5.434;2023-09-19T07:07:35;100962.25;;;14.05;100.00
71791;BME280;59638;52.126;5.434;2023-09-19T07:10:03;100957.66;;;14.15;100.00
71791;BME280;59638;52.126;5.434;2023-09-19T07:12:33;100956.41;;;14.27;100.00
71791;BME280;59638;52.126;5.434;2023-09-19T07:14:59;100955.44;;;14.36;100.00
71791;BME280;59638;52.126;5.434;2023-09-19T07:17:25;100958.84;;;14.47;100.00
71791;BME280;59638;52.126;5.434;2023-09-19T07:19:52;100956.03;;;14.56;100.00
71791;BME280;59638;52.126;5.434;2023-09-19T07:22:19;100964.88;;;14.65;100.00
71791;BME280;59638;52.126;5.434;2023-09-19T07:24:45;100970.06;;;14.75;100.00
71791;BME280;59638;52.126;5.434;2023-09-19T07:27:13;100984.19;;;14.83;100.00
71791;BME280;59638;52.126;5.434;2023-09-19T07:29:39;100978.22;;;14.89;100.00
71791;BME280;59638;52.126;5.434;2023-09-19T07:32:06;100973.28;;;14.94;100.00
71791;BME280;59638;52.126;5.434;2023-09-19T07:34:33;100975.63;;;15.06;100.00
71791;BME280;59638;52.126;5.434;2023-09-19T07:37:01;100986.63;;;15.19;100.00
71791;BME280;59638;52.126;5.434;2023-09-19T07:39:29;100981.13;;;15.37;100.00
71791;BME280;59638;52.126;5.434;2023-09-19T07:41:56;100990.66;;;15.72;100.00
71791;BME280;59638;52.126;5.434;2023-09-19T07:44:22;100989.44;;;16.07;100.00
71791;BME280;59638;52.126;5.434;2023-09-19T07:46:49;100977.16;;;16.45;100.00
71791;BME280;59638;52.126;5.434;2023-09-19T07:49:17;100984.75;;;16.65;100.00
71791;BME280;59638;52.126;5.434;2023-09-19T07:51:44;100985.81;;;16.87;100.00
71791;BME280;59638;52.126;5.434;2023-09-19T07:54:14;100980.75;;;17.23;100.00
71791;BME280;59638;52.126;5.434;2023-09-19T07:56:41;100983.00;;;17.34;100.00
71791;BME280;59638;52.126;5.434;2023-09-19T07:59:07;100990.22;;;17.48;100.00
71791;BME280;59638;52.126;5.434;2023-09-19T08:01:34;100984.19;;;17.77;100.00
71791;BME280;59638;52.126;5.434;2023-09-19T08:04:02;100980.72;;;17.68;100.00
71791;BME280;59638;52.126;5.434;2023-09-19T08:06:28;100975.38;;;17.68;100.00
71791;BME280;59638;52.126;5.434;2023-09-19T08:08:59;100993.16;;;17.99;100.00
71791;BME280;59638;52.126;5.434;2023-09-19T08:11:35;100991.44;;;18.36;95.49
71791;BME280;59638;52.126;5.434;2023-09-19T08:14:02;100992.50;;;18.27;99.83
71791;BME280;59638;52.126;5.434;2023-09-19T08:16:29;100986.16;;;18.28;99.89
71791;BME280;59638;52.126;5.434;2023-09-19T08:18:55;100988.53;;;18.08;99.71
71791;BME280;59638;52.126;5.434;2023-09-19T08:21:22;100982.41;;;17.70;99.62
71791;BME280;59638;52.126;5.434;2023-09-19T08:23:50;100989.34;;;17.33;100.00
71791;BME280;59638;52.126;5.434;2023-09-19T08:26:16;100997.97;;;17.43;100.00
71791;BME280;59638;52.126;5.434;2023-09-19T08:28:43;100974.94;;;17.42;100.00
71791;BME280;59638;52.126;5.434;2023-09-19T08:31:10;100981.88;;;17.74;100.00
71791;BME280;59638;52.126;5.434;2023-09-19T08:33:37;100980.47;;;18.16;100.00
71791;BME280;59638;52.126;5.434;2023-09-19T08:36:06;100976.94;;;18.45;98.07
71791;BME280;59638;52.126;5.434;2023-09-19T08:38:35;100976.50;;;18.12;98.89
71791;BME280;59638;52.126;5.434;2023-09-19T08:41:06;100978.44;;;18.03;99.53
71791;BME280;59638;52.126;5.434;2023-09-19T08:43:33;100973.72;;;18.20;98.87
71791;BME280;59638;52.126;5.434;2023-09-19T08:46:13;100969.13;;;18.43;97.00
71791;BME280;59638;52.126;5.434;2023-09-19T08:48:57;100958.91;;;18.17;98.97
71791;BME280;59638;52.126;5.434;2023-09-19T08:51:33;100965.34;;;18.23;98.92
71791;BME280;59638;52.126;5.434;2023-09-19T08:54:18;100972.47;;;18.82;96.37
71791;BME280;59638;52.126;5.434;2023-09-19T08:56:50;100965.19;;;18.90;95.82
71791;BME280;59638;52.126;5.434;2023-09-19T08:59:21;100972.13;;;19.27;90.97
71791;BME280;59638;52.126;5.434;2023-09-19T09:01:51;100976.59;;;19.63;86.58
71791;BME280;59638;52.126;5.434;2023-09-19T09:04:22;100972.38;;;20.03;89.74
71791;BME280;59638;52.126;5.434;2023-09-19T09:06:50;100972.88;;;20.20;88.43
71791;BME280;59638;52.126;5.434;2023-09-19T09:09:20;100971.94;;;20.76;82.50
71791;BME280;59638;52.126;5.434;2023-09-19T09:11:48;100975.06;;;20.92;84.06
71791;BME280;59638;52.126;5.434;2023-09-19T09:14:18;100973.22;;;20.10;85.79
71791;BME280;59638;52.126;5.434;2023-09-19T09:16:45;100974.28;;;19.39;87.76
71791;BME280;59638;52.126;5.434;2023-09-19T09:19:12;100971.16;;;19.56;88.10
71791;BME280;59638;52.126;5.434;2023-09-19T09:21:40;100971.56;;;19.75;87.93
71791;BME280;59638;52.126;5.434;2023-09-19T09:24:26;100967.00;;;19.54;88.22
71791;BME280;59638;52.126;5.434;2023-09-19T09:26:54;100962.78;;;18.81;90.25
71791;BME280;59638;52.126;5.434;2023-09-19T09:32:23;100954.28;;;18.26;91.51
71791;BME280;59638;52.126;5.434;2023-09-19T09:34:55;100970.94;;;18.28;92.42
71791;BME280;59638;52.126;5.434;2023-09-19T09:37:26;100953.06;;;18.43;92.14
71791;BME280;59638;52.126;5.434;2023-09-19T09:39:56;100962.44;;;19.05;93.42
71791;BME280;59638;52.126;5.434;2023-09-19T09:42:34;100950.84;;;19.62;87.51
71791;BME280;59638;52.126;5.434;2023-09-19T09:45:17;100945.09;;;19.65;89.23
71791;BME280;59638;52.126;5.434;2023-09-19T09:47:47;100955.06;;;20.06;83.16
71791;BME280;59638;52.126;5.434;2023-09-19T09:52:56;100937.72;;;22.04;79.54
71791;BME280;59638;52.126;5.434;2023-09-19T09:56:05;100940.66;;;21.82;76.94
71791;BME280;59638;52.126;5.434;2023-09-19T09:58:37;100941.06;;;21.26;78.75
71791;BME280;59638;52.126;5.434;2023-09-19T10:01:04;100934.66;;;20.46;80.89
71791;BME280;59638;52.126;5.434;2023-09-19T10:03:42;100936.41;;;19.91;83.05
71791;BME280;59638;52.126;5.434;2023-09-19T10:06:16;100952.75;;;19.25;89.73
71791;BME280;59638;52.126;5.434;2023-09-19T10:11:32;100950.09;;;18.68;90.55
71791;BME280;59638;52.126;5.434;2023-09-19T10:14:00;100955.53;;;18.74;89.88
71791;BME280;59638;52.126;5.434;2023-09-19T10:16:30;100944.88;;;18.30;90.90
71791;BME280;59638;52.126;5.434;2023-09-19T10:19:01;100949.69;;;18.05;92.71
71791;BME280;59638;52.126;5.434;2023-09-19T10:21:29;100955.84;;;17.91;93.35
71791;BME280;59638;52.126;5.434;2023-09-19T10:23:58;100946.81;;;17.77;92.54
71791;BME280;59638;52.126;5.434;2023-09-19T10:26:29;100952.59;;;17.81;94.31
71791;BME280;59638;52.126;5.434;2023-09-19T10:28:58;100945.06;;;18.14;91.78
71791;BME280;59638;52.126;5.434;2023-09-19T10:31:28;100928.94;;;19.31;86.01
71791;BME280;59638;52.126;5.434;2023-09-19T10:33:55;100930.66;;;19.88;82.05
71791;BME280;59638;52.126;5.434;2023-09-19T10:36:24;100918.88;;;20.23;81.14
71791;BME280;59638;52.126;5.434;2023-09-19T10:38:56;100929.28;;;21.27;79.13
71791;BME280;59638;52.126;5.434;2023-09-19T10:41:27;100915.28;;;22.36;72.34
71791;BME280;59638;52.126;5.434;2023-09-19T10:43:56;100907.97;;;22.57;72.18
71791;BME280;59638;52.126;5.434;2023-09-19T10:46:26;100913.00;;;21.49;73.93
71791;BME280;59638;52.126;5.434;2023-09-19T10:48:52;100898.88;;;20.67;78.29
71791;BME280;59638;52.126;5.434;2023-09-19T10:51:24;100900.50;;;20.61;77.80
71791;BME280;59638;52.126;5.434;2023-09-19T10:53:59;100890.66;;;20.88;75.77
71791;BME280;59638;52.126;5.434;2023-09-19T10:56:36;100910.00;;;19.81;82.08
71791;BME280;59638;52.126;5.434;2023-09-19T11:02:16;100891.97;;;20.45;83.75
71791;BME280;59638;52.126;5.434;2023-09-19T11:04:44;100898.16;;;20.45;81.21
71791;BME280;59638;52.126;5.434;2023-09-19T11:07:14;100882.41;;;19.88;81.27
71791;BME280;59638;52.126;5.434;2023-09-19T11:15:08;100880.75;;;19.87;81.57
71791;BME280;59638;52.126;5.434;2023-09-19T11:17:38;100878.34;;;19.36;85.70
71791;BME280;59638;52.126;5.434;2023-09-19T11:30:45;100875.25;;;22.60;71.43
71791;BME280;59638;52.126;5.434;2023-09-19T11:33:23;100886.47;;;20.73;76.84
71791;BME280;59638;52.126;5.434;2023-09-19T11:36:02;100871.63;;;19.74;81.43
71791;BME280;59638;52.126;5.434;2023-09-19T11:46:31;100855.41;;;18.62;88.78
71791;BME280;59638;52.126;5.434;2023-09-19T11:49:08;100853.72;;;18.97;86.51
71791;BME280;59638;52.126;5.434;2023-09-19T11:51:40;100853.53;;;19.27;87.00
71791;BME280;59638;52.126;5.434;2023-09-19T11:54:13;100842.84;;;19.90;84.39
71791;BME280;59638;52.126;5.434;2023-09-19T11:56:45;100837.25;;;20.39;81.69
71791;BME280;59638;52.126;5.434;2023-09-19T11:59:20;100838.22;;;20.18;80.16
71791;BME280;59638;52.126;5.434;2023-09-19T12:01:52;100844.78;;;19.61;82.31
71791;BME280;59638;52.126;5.434;2023-09-19T12:04:44;100877.28;;;19.58;82.84
71791;BME280;59638;52.126;5.434;2023-09-19T12:07:16;100861.97;;;19.24;81.87
71791;BME280;59638;52.126;5.434;2023-09-19T12:09:49;100869.31;;;18.94;83.31
71791;BME280;59638;52.126;5.434;2023-09-19T12:12:20;100874.22;;;18.90;82.87
71791;BME280;59638;52.126;5.434;2023-09-19T12:14:50;100864.41;;;18.97;83.55
71791;BME280;59638;52.126;5.434;2023-09-19T12:17:17;100876.13;;;19.18;82.57
71791;BME280;59638;52.126;5.434;2023-09-19T12:19:51;100869.31;;;19.15;85.01
71791;BME280;59638;52.126;5.434;2023-09-19T12:22:18;100866.38;;;19.10;83.31
71791;BME280;59638;52.126;5.434;2023-09-19T12:24:47;100850.81;;;19.20;82.36
71791;BME280;59638;52.126;5.434;2023-09-19T12:27:14;100862.53;;;19.19;83.21
71791;BME280;59638;52.126;5.434;2023-09-19T12:29:46;100865.63;;;18.95;84.07
71791;BME280;59638;52.126;5.434;2023-09-19T12:32:15;100860.94;;;18.76;86.00
71791;BME280;59638;52.126;5.434;2023-09-19T12:34:51;100863.69;;;18.67;86.57
71791;BME280;59638;52.126;5.434;2023-09-19T12:37:19;100866.13;;;18.62;85.96
71791;BME280;59638;52.126;5.434;2023-09-19T12:39:50;100862.94;;;18.73;84.55
71791;BME280;59638;52.126;5.434;2023-09-19T12:42:21;100855.19;;;18.79;85.17
71791;BME280;59638;52.126;5.434;2023-09-19T12:44:50;100867.94;;;18.62;84.99
71791;BME280;59638;52.126;5.434;2023-09-19T12:47:22;100853.78;;;18.46;86.97
71791;BME280;59638;52.126;5.434;2023-09-19T12:52:46;100867.66;;;18.20;88.76
71791;BME280;59638;52.126;5.434;2023-09-19T12:55:29;100864.72;;;18.15;89.38
71791;BME280;59638;52.126;5.434;2023-09-19T12:58:11;100862.72;;;18.17;90.27
71791;BME280;59638;52.126;5.434;2023-09-19T13:00:39;100865.28;;;18.26;90.93
71791;BME280;59638;52.126;5.434;2023-09-19T13:03:18;100865.44;;;18.39;89.51
71791;BME280;59638;52.126;5.434;2023-09-19T13:08:24;100865.50;;;18.82;89.36
71791;BME280;59638;52.126;5.434;2023-09-19T13:11:16;100859.38;;;18.88;90.48
71791;BME280;59638;52.126;5.434;2023-09-19T13:14:21;100861.94;;;18.96;88.02
71791;BME280;59638;52.126;5.434;2023-09-19T13:17:02;100854.44;;;18.85;88.46
71791;BME280;59638;52.126;5.434;2023-09-19T13:22:36;100872.78;;;18.52;88.58
71791;BME280;59638;52.126;5.434;2023-09-19T13:25:06;100873.84;;;18.36;89.89
71791;BME280;59638;52.126;5.434;2023-09-19T13:27:34;100872.56;;;18.17;89.68
71791;BME280;59638;52.126;5.434;2023-09-19T13:30:00;100876.53;;;18.06;91.76
71791;BME280;59638;52.126;5.434;2023-09-19T13:32:27;100867.50;;;18.07;91.74
71791;BME280;59638;52.126;5.434;2023-09-19T13:34:53;100866.19;;;18.33;92.61
71791;BME280;59638;52.126;5.434;2023-09-19T13:37:20;100874.53;;;18.81;89.49
71791;BME280;59638;52.126;5.434;2023-09-19T13:39:46;100858.63;;;18.94;89.40
71791;BME280;59638;52.126;5.434;2023-09-19T13:42:14;100859.38;;;18.88;88.21
71791;BME280;59638;52.126;5.434;2023-09-19T13:44:40;100859.91;;;18.98;87.24
71791;BME280;59638;52.126;5.434;2023-09-19T13:47:07;100850.06;;;19.05;87.88
71791;BME280;59638;52.126;5.434;2023-09-19T13:49:36;100847.16;;;19.00;86.60